Time;durP1;ratioP1;P1;durP2;ratioP2;P2;SDS_P1;SDS_P2;PMS_P1;PMS_P2;Temp;Humidity;BMP_temperature;BMP_pressure;BME280_temperature;BME280_humidity;BME280_pressure;Samples;Min_cycle;Max_cycle;Signal;HPM_P1;HPM_P2
2022/10/25 00:02:18;;;;;;;14.60;6.30;;;12.80;99.90;;;;;;5054973;28;20495;-70
2022/10/25 00:04:46;;;;;;;8.48;5.90;;;12.90;99.90;;;;;;5057831;28;20075;-70
2022/10/25 00:07:13;;;;;;;9.60;7.18;;;12.90;99.90;;;;;;5055023;28;20063;-70
2022/10/25 00:09:42;;;;;;;10.02;7.78;;;13.00;99.90;;;;;;5051901;28;21407;-70
2022/10/25 00:12:09;;;;;;;8.75;7.95;;;13.10;99.90;;;;;;5037281;28;20041;-70
2022/10/25 00:14:36;;;;;;;21.95;10.05;;;13.10;99.90;;;;;;5055242;28;20049;-70
2022/10/25 00:17:02;;;;;;;10.13;9.02;;;13.30;99.90;;;;;;5055460;28;20053;-70
2022/10/25 00:19:29;;;;;;;14.75;9.48;;;13.30;99.90;;;;;;5046277;28;20037;-71
2022/10/25 00:21:56;;;;;;;12.95;8.88;;;13.30;99.90;;;;;;5029264;28;20048;-70
2022/10/25 00:24:23;;;;;;;14.57;8.45;;;13.20;99.90;;;;;;5053898;28;20040;-70
2022/10/25 00:26:50;;;;;;;15.35;7.78;;;13.20;99.90;;;;;;5051740;28;20048;-70
2022/10/25 00:29:16;;;;;;;12.00;7.38;;;13.20;99.90;;;;;;5055153;28;20072;-70
2022/10/25 00:31:44;;;;;;;12.63;7.72;;;13.20;99.90;;;;;;5040402;28;20063;-70
2022/10/25 00:34:10;;;;;;;11.30;7.03;;;13.20;99.90;;;;;;5058404;28;20052;-70
2022/10/25 00:36:37;;;;;;;9.70;8.20;;;13.20;99.90;;;;;;5052499;28;20083;-70
2022/10/25 00:39:04;;;;;;;14.55;8.15;;;13.20;99.90;;;;;;5059516;28;20425;-70
2022/10/25 00:41:32;;;;;;;11.60;9.02;;;13.30;99.90;;;;;;5038019;28;20045;-70
2022/10/25 00:44:37;;;;;;;15.15;7.40;;;13.30;99.90;;;;;;5059404;28;20069;-70
2022/10/25 00:47:17;;;;;;;10.32;7.97;;;13.30;99.90;;;;;;5041123;28;20046;-71
2022/10/25 00:49:51;;;;;;;12.20;7.38;;;13.20;99.90;;;;;;5056138;28;20143;-71
2022/10/25 00:52:18;;;;;;;8.18;7.13;;;13.20;99.90;;;;;;5057052;28;20153;-70
2022/10/25 00:54:50;;;;;;;12.75;7.10;;;13.20;99.90;;;;;;5037957;28;20422;-70
2022/10/25 00:57:21;;;;;;;11.70;7.75;;;13.20;99.90;;;;;;5040312;28;20036;-70
2022/10/25 00:59:48;;;;;;;15.55;8.30;;;13.20;99.90;;;;;;5048928;28;21376;-70
2022/10/25 01:02:16;;;;;;;13.48;8.07;;;13.20;99.90;;;;;;5053106;28;20131;-70
2022/10/25 01:04:43;;;;;;;12.77;7.68;;;13.30;99.90;;;;;;5060140;28;20075;-70
2022/10/25 01:07:10;;;;;;;19.27;8.65;;;13.30;99.90;;;;;;5064643;28;20064;-70
2022/10/25 01:09:38;;;;;;;8.45;7.60;;;13.30;99.90;;;;;;5055072;28;20055;-70
2022/10/25 01:12:05;;;;;;;21.05;8.13;;;13.30;99.90;;;;;;5057685;28;20514;-70
2022/10/25 01:14:39;;;;;;;21.25;8.07;;;13.20;99.90;;;;;;5038219;28;20094;-70
2022/10/25 01:17:18;;;;;;;15.23;7.45;;;13.20;99.90;;;;;;5058377;28;20044;-70
2022/10/25 01:20:14;;;;;;;19.48;7.93;;;13.10;99.90;;;;;;5046165;28;20098;-70
2022/10/25 01:22:50;;;;;;;;;;;13.10;99.90;;;;;;5032552;28;20418;-70
2022/10/25 01:25:55;;;;;;;11.77;7.82;;;13.10;99.90;;;;;;5038874;28;20381;-70
2022/10/25 01:28:53;;;;;;;14.38;7.43;;;13.10;99.90;;;;;;5053488;28;20032;-70
2022/10/25 01:31:31;;;;;;;15.30;7.45;;;13.10;99.90;;;;;;5056911;28;20032;-70
2022/10/25 01:34:25;;;;;;;11.73;8.05;;;13.10;99.90;;;;;;5036766;28;20055;-70
2022/10/25 01:37:04;;;;;;;12.32;7.40;;;13.10;99.90;;;;;;5050044;28;20040;-70
2022/10/25 01:39:36;;;;;;;11.05;8.52;;;13.20;99.90;;;;;;5053625;28;20068;-70
2022/10/25 01:42:26;;;;;;;11.45;8.02;;;13.20;99.90;;;;;;5034410;28;20029;-70
2022/10/25 01:45:20;;;;;;;11.93;8.20;;;13.20;99.90;;;;;;5018843;28;20162;-70
2022/10/25 01:47:50;;;;;;;18.33;8.63;;;13.30;99.90;;;;;;5033994;28;20052;-70
2022/10/25 01:50:25;;;;;;;20.67;9.55;;;13.30;99.90;;;;;;5051493;28;20414;-69
2022/10/25 01:52:52;;;;;;;11.63;9.05;;;13.20;99.90;;;;;;5017650;28;20040;-70
2022/10/25 01:55:30;;;;;;;18.35;8.95;;;13.30;99.90;;;;;;5035329;28;20136;-69
2022/10/25 01:58:18;;;;;;;14.68;9.23;;;13.30;99.90;;;;;;5046019;28;20374;-70
2022/10/25 02:01:00;;;;;;;15.63;8.93;;;13.30;99.90;;;;;;5051398;28;20032;-69
2022/10/25 02:03:51;;;;;;;9.30;8.35;;;13.30;99.90;;;;;;5057257;28;20037;-70
2022/10/25 02:06:34;;;;;;;11.10;7.72;;;13.30;99.90;;;;;;5060664;28;20040;-69
2022/10/25 02:09:33;;;;;;;14.43;9.70;;;13.30;99.90;;;;;;5055691;28;20053;-70
2022/10/25 02:12:01;;;;;;;14.27;9.23;;;13.30;99.90;;;;;;5029478;28;20579;-69
2022/10/25 02:14:40;;;;;;;14.52;10.05;;;13.30;99.90;;;;;;5056165;28;20036;-70
2022/10/25 02:17:16;;;;;;;14.20;10.52;;;13.30;99.90;;;;;;5055269;28;20037;-69
2022/10/25 02:19:48;;;;;;;14.63;10.15;;;13.30;99.90;;;;;;5051778;28;20266;-69
2022/10/25 02:22:17;;;;;;;11.77;9.43;;;13.30;99.90;;;;;;5056910;28;20521;-70
2022/10/25 02:24:46;;;;;;;17.15;9.05;;;13.30;99.90;;;;;;5051929;28;20039;-70
2022/10/25 02:27:14;;;;;;;15.07;8.32;;;13.20;99.90;;;;;;5051811;28;20091;-70
2022/10/25 02:29:43;;;;;;;8.70;8.00;;;13.20;99.90;;;;;;5031526;28;20235;-69
2022/10/25 02:32:10;;;;;;;10.45;7.82;;;13.10;99.90;;;;;;5056736;28;20286;-70
2022/10/25 02:34:38;;;;;;;11.77;8.75;;;13.10;99.90;;;;;;5054869;28;20052;-70
2022/10/25 02:37:04;;;;;;;10.77;9.07;;;13.10;99.90;;;;;;5043764;22;20042;-76
2022/10/25 02:39:33;;;;;;;14.88;9.25;;;13.10;99.90;;;;;;4993164;28;20482;-78
2022/10/25 02:42:03;;;;;;;10.45;9.15;;;13.10;99.90;;;;;;5022403;28;20547;-78
2022/10/25 02:44:30;;;;;;;10.25;8.73;;;13.10;99.90;;;;;;5027276;28;20055;-78
2022/10/25 02:46:57;;;;;;;11.35;8.98;;;13.20;99.90;;;;;;5026911;28;20170;-79
2022/10/25 02:49:24;;;;;;;9.93;8.95;;;13.20;99.90;;;;;;5010615;28;20052;-77
2022/10/25 02:51:51;;;;;;;11.90;9.45;;;13.20;99.90;;;;;;5016495;28;20062;-77
2022/10/25 02:54:22;;;;;;;15.70;9.90;;;13.20;99.90;;;;;;5009964;28;20038;-77
2022/10/25 02:56:51;;;;;;;15.05;9.63;;;13.20;99.90;;;;;;5006405;28;20049;-77
2022/10/25 02:59:21;;;;;;;16.77;10.10;;;13.20;99.90;;;;;;5006004;28;20486;-78
2022/10/25 03:01:48;;;;;;;15.10;9.05;;;13.20;99.90;;;;;;5003492;28;20132;-78
2022/10/25 03:04:14;;;;;;;10.45;9.32;;;13.10;99.90;;;;;;5022456;28;20045;-77
2022/10/25 03:06:41;;;;;;;11.43;9.18;;;13.10;99.90;;;;;;5005936;28;20057;-79
2022/10/25 03:09:08;;;;;;;15.80;9.82;;;13.10;99.90;;;;;;5025339;28;20101;-79
2022/10/25 03:11:35;;;;;;;16.73;9.20;;;13.00;99.90;;;;;;5017165;28;20084;-77
2022/10/25 03:14:01;;;;;;;15.25;9.13;;;13.00;99.90;;;;;;5025924;28;20136;-77
2022/10/25 03:16:28;;;;;;;12.68;9.40;;;12.90;99.90;;;;;;5023936;28;20064;-76
2022/10/25 03:18:57;;;;;;;13.00;9.05;;;12.90;99.90;;;;;;5009189;28;20057;-76
2022/10/25 03:21:24;;;;;;;19.77;9.30;;;12.90;99.90;;;;;;5031654;28;20226;-76
2022/10/25 03:23:51;;;;;;;15.63;9.73;;;12.90;99.90;;;;;;5031263;28;20040;-76
2022/10/25 03:26:18;;;;;;;14.18;8.73;;;12.90;99.90;;;;;;5025366;28;20037;-77
2022/10/25 03:28:45;;;;;;;14.98;10.05;;;12.90;99.90;;;;;;5023276;28;20188;-77
2022/10/25 03:31:14;;;;;;;15.18;9.80;;;13.00;99.90;;;;;;5029673;28;20124;-76
2022/10/25 03:33:41;;;;;;;17.70;9.70;;;13.00;99.90;;;;;;5008549;28;20069;-77
2022/10/25 03:36:08;;;;;;;17.70;8.57;;;13.00;99.90;;;;;;5034842;28;20136;-77
2022/10/25 03:38:35;;;;;;;11.35;8.88;;;13.00;99.90;;;;;;5013670;28;20080;-78
2022/10/25 03:41:03;;;;;;;10.68;9.45;;;13.00;99.90;;;;;;5016339;28;20494;-77
2022/10/25 03:43:29;;;;;;;11.02;8.70;;;13.00;99.90;;;;;;5026629;28;20105;-78
2022/10/25 03:45:59;;;;;;;15.35;9.23;;;13.00;99.90;;;;;;5023092;28;20095;-77
2022/10/25 03:48:26;;;;;;;14.48;8.85;;;13.00;99.90;;;;;;5025118;28;20076;-77
2022/10/25 03:50:53;;;;;;;13.02;8.48;;;13.00;99.90;;;;;;5006727;28;20034;-78
2022/10/25 03:53:20;;;;;;;15.18;9.13;;;13.00;99.90;;;;;;5014710;28;20049;-76
2022/10/25 03:55:48;;;;;;;14.02;9.30;;;13.00;99.90;;;;;;5004867;28;20105;-77
2022/10/25 03:58:16;;;;;;;12.45;9.18;;;13.00;99.90;;;;;;5025732;28;20220;-78
2022/10/25 04:00:42;;;;;;;11.85;9.00;;;13.00;99.90;;;;;;5035224;28;20045;-78
2022/10/25 04:03:09;;;;;;;14.00;8.85;;;13.00;99.90;;;;;;5015557;28;20045;-78
2022/10/25 04:05:36;;;;;;;18.45;10.10;;;13.00;99.90;;;;;;5027873;28;20425;-78
2022/10/25 04:08:03;;;;;;;17.00;10.02;;;13.00;99.90;;;;;;5008401;28;20196;-77
2022/10/25 04:10:30;;;;;;;11.20;10.05;;;13.00;99.90;;;;;;5031828;28;20041;-78
2022/10/25 04:12:57;;;;;;;13.38;9.20;;;13.00;99.90;;;;;;5007601;28;20053;-78
2022/10/25 04:15:24;;;;;;;13.82;8.93;;;13.00;99.90;;;;;;5007683;28;20045;-77
2022/10/25 04:17:52;;;;;;;13.88;8.90;;;13.00;99.90;;;;;;5008079;28;20073;-78
2022/10/25 04:20:19;;;;;;;13.73;10.05;;;13.00;99.90;;;;;;5023143;28;20034;-78
2022/10/25 04:22:53;;;;;;;14.00;9.15;;;13.00;99.90;;;;;;5036301;28;20090;-78
2022/10/25 04:25:20;;;;;;;14.32;10.30;;;13.00;99.90;;;;;;5020553;28;20042;-78
2022/10/25 04:27:50;;;;;;;12.13;8.60;;;13.00;99.90;;;;;;5030210;28;20065;-77
2022/10/25 04:30:17;;;;;;;13.40;8.65;;;13.00;99.90;;;;;;5007718;28;20061;-78
2022/10/25 04:32:44;;;;;;;12.57;9.60;;;13.00;99.90;;;;;;5021851;28;20117;-77
2022/10/25 04:35:11;;;;;;;14.02;10.45;;;13.00;99.90;;;;;;5007099;28;20050;-77
2022/10/25 04:37:38;;;;;;;10.93;9.85;;;13.00;99.90;;;;;;5009056;28;20050;-79
2022/10/25 04:40:06;;;;;;;14.25;11.20;;;13.00;99.90;;;;;;5033556;28;20052;-77
2022/10/25 04:42:33;;;;;;;11.75;10.55;;;13.00;99.90;;;;;;5027333;28;20072;-77
2022/10/25 04:45:00;;;;;;;12.45;9.73;;;13.00;99.90;;;;;;5023740;28;20109;-77
2022/10/25 04:47:32;;;;;;;13.73;9.85;;;12.90;99.90;;;;;;5008686;28;20030;-78
2022/10/25 04:49:59;;;;;;;12.02;9.65;;;12.90;99.90;;;;;;5022069;28;20138;-78
2022/10/25 04:52:28;;;;;;;18.75;9.88;;;12.90;99.90;;;;;;5014261;28;20044;-78
2022/10/25 04:54:55;;;;;;;18.85;10.50;;;12.90;99.90;;;;;;5032922;28;20049;-77
2022/10/25 04:57:23;;;;;;;12.50;9.82;;;12.90;99.90;;;;;;5021236;28;20108;-77
2022/10/25 04:59:51;;;;;;;13.13;9.82;;;12.90;99.90;;;;;;5013034;28;20112;-79
2022/10/25 05:02:18;;;;;;;12.30;9.60;;;12.90;99.90;;;;;;5011168;28;20080;-77
2022/10/25 05:04:44;;;;;;;10.50;9.57;;;12.90;99.90;;;;;;5022655;28;20144;-80
2022/10/25 05:07:11;;;;;;;15.23;10.25;;;12.90;99.90;;;;;;5024116;28;20427;-77
2022/10/25 05:09:38;;;;;;;22.50;10.60;;;12.90;99.90;;;;;;5022850;28;20410;-78
2022/10/25 05:12:10;;;;;;;10.45;9.18;;;12.90;99.90;;;;;;5003975;28;20104;-78
2022/10/25 05:14:37;;;;;;;16.83;10.05;;;12.90;99.90;;;;;;5026070;28;20048;-80
2022/10/25 05:17:04;;;;;;;14.02;9.13;;;12.90;99.90;;;;;;5006016;28;20061;-78
2022/10/25 05:19:31;;;;;;;15.82;9.07;;;12.90;99.90;;;;;;5005078;28;20072;-78
2022/10/25 05:21:57;;;;;;;19.95;10.05;;;12.90;99.90;;;;;;5018948;28;20132;-79
2022/10/25 05:24:24;;;;;;;13.77;8.93;;;12.90;99.90;;;;;;5020174;28;20572;-77
2022/10/25 05:26:51;;;;;;;17.60;11.52;;;12.80;99.90;;;;;;5012240;28;20045;-77
2022/10/25 05:29:18;;;;;;;13.98;9.43;;;12.80;99.90;;;;;;5036452;28;20462;-79
2022/10/25 05:31:44;;;;;;;16.40;10.48;;;12.80;99.90;;;;;;5009083;28;20231;-78
2022/10/25 05:34:11;;;;;;;14.73;9.52;;;12.80;99.90;;;;;;5031564;28;20038;-78
2022/10/25 05:36:38;;;;;;;19.08;9.63;;;12.70;99.90;;;;;;5003607;28;20080;-79
2022/10/25 05:39:05;;;;;;;16.10;8.77;;;12.70;99.90;;;;;;5004693;28;20057;-77
2022/10/25 05:41:31;;;;;;;16.75;9.93;;;12.70;99.90;;;;;;5009006;28;20041;-81
2022/10/25 05:44:03;;;;;;;14.13;8.32;;;12.60;99.90;;;;;;5021728;28;20052;-78
2022/10/25 05:46:30;;;;;;;16.00;8.68;;;12.60;99.90;;;;;;5033045;28;20574;-79
2022/10/25 05:49:00;;;;;;;18.70;9.27;;;12.50;99.90;;;;;;5017357;28;20041;-78
2022/10/25 05:51:31;;;;;;;19.58;8.93;;;12.50;99.90;;;;;;5012309;28;20041;-78
2022/10/25 05:54:08;;;;;;;12.00;8.40;;;12.60;99.90;;;;;;5032562;28;20094;-79
2022/10/25 05:56:35;;;;;;;15.10;8.60;;;12.60;99.90;;;;;;5015232;28;20030;-79
2022/10/25 05:59:10;;;;;;;22.25;10.15;;;12.50;99.90;;;;;;5007619;28;20160;-79
2022/10/25 06:01:40;;;;;;;23.50;9.75;;;12.50;99.90;;;;;;5026057;28;20057;-81
2022/10/25 06:04:08;;;;;;;21.55;10.45;;;12.50;99.90;;;;;;5032961;28;20053;-79
2022/10/25 06:06:36;;;;;;;19.65;9.50;;;12.50;99.90;;;;;;5016396;28;20132;-79
2022/10/25 06:09:04;;;;;;;20.85;9.43;;;12.50;99.90;;;;;;5038872;28;20104;-78
2022/10/25 06:11:34;;;;;;;24.10;11.30;;;12.40;99.90;;;;;;5027366;28;20095;-78
2022/10/25 06:14:01;;;;;;;21.60;11.15;;;12.40;99.90;;;;;;5035101;23;20524;-74
2022/10/25 06:16:28;;;;;;;26.02;12.65;;;12.40;99.90;;;;;;5057174;28;20040;-74
2022/10/25 06:18:56;;;;;;;21.85;12.82;;;12.40;99.90;;;;;;5034661;28;20414;-74
2022/10/25 06:21:27;;;;;;;19.67;11.90;;;12.40;99.90;;;;;;5018637;28;20045;-75
2022/10/25 06:23:55;;;;;;;22.95;11.93;;;12.40;99.90;;;;;;5009050;28;20402;-74
2022/10/25 06:26:24;;;;;;;21.58;11.90;;;12.40;99.90;;;;;;5022039;28;20565;-75
2022/10/25 06:28:54;;;;;;;30.65;12.23;;;12.40;99.90;;;;;;5031808;28;20054;-75
2022/10/25 06:31:21;;;;;;;32.28;14.18;;;12.40;99.90;;;;;;5015353;28;20055;-74
2022/10/25 06:33:48;;;;;;;22.95;12.38;;;12.40;99.90;;;;;;5013584;28;20045;-73
2022/10/25 06:36:17;;;;;;;23.95;11.68;;;12.30;99.90;;;;;;5037081;28;20045;-73
2022/10/25 06:38:45;;;;;;;20.13;9.65;;;12.30;99.90;;;;;;5046535;28;20120;-74
2022/10/25 06:41:14;;;;;;;16.52;10.20;;;12.30;99.90;;;;;;5010402;28;20088;-74
2022/10/25 06:43:41;;;;;;;15.07;10.48;;;12.30;99.90;;;;;;5028153;28;20049;-74
2022/10/25 06:46:27;;;;;;;22.15;13.43;;;12.30;99.90;;;;;;5019376;28;20319;-75
2022/10/25 06:48:56;;;;;;;24.23;13.80;;;12.30;99.90;;;;;;5013375;28;20437;-75
2022/10/25 06:51:24;;;;;;;19.50;12.15;;;12.30;99.90;;;;;;5000435;28;20072;-75
2022/10/25 06:54:00;;;;;;;25.55;14.02;;;12.30;99.90;;;;;;5012446;28;20624;-75
2022/10/25 06:56:27;;;;;;;18.20;12.52;;;12.30;99.90;;;;;;5013741;28;20103;-74
2022/10/25 06:58:55;;;;;;;25.02;13.40;;;12.30;99.90;;;;;;5011796;28;20057;-75
2022/10/25 07:01:23;;;;;;;24.08;13.70;;;12.30;99.90;;;;;;5039945;28;20041;-75
2022/10/25 07:03:52;;;;;;;37.80;16.40;;;12.40;99.90;;;;;;5008411;28;20488;-74
2022/10/25 07:06:26;;;;;;;37.10;15.07;;;12.40;99.90;;;;;;5035688;28;20037;-75
2022/10/25 07:08:55;;;;;;;29.92;15.13;;;12.40;99.90;;;;;;5014526;28;20080;-74
2022/10/25 07:11:24;;;;;;;25.05;12.63;;;12.50;99.90;;;;;;5016863;28;20410;-74
2022/10/25 07:13:51;;;;;;;28.15;14.25;;;12.40;99.90;;;;;;5004140;28;20079;-76
2022/10/25 07:16:19;;;;;;;28.13;15.00;;;12.50;99.90;;;;;;5033844;28;20127;-75
2022/10/25 07:18:47;;;;;;;26.70;14.02;;;12.50;99.90;;;;;;5015722;28;20045;-75
2022/10/25 07:21:20;;;;;;;20.80;11.68;;;12.50;99.90;;;;;;4999427;28;20285;-75
2022/10/25 07:23:48;;;;;;;26.70;12.80;;;12.40;99.90;;;;;;5003124;28;20044;-76
2022/10/25 07:26:28;;;;;;;27.38;12.00;;;12.40;99.90;;;;;;5010952;28;20083;-74
2022/10/25 07:28:56;;;;;;;20.65;11.98;;;12.50;99.90;;;;;;5031870;28;20045;-75
2022/10/25 07:31:28;;;;;;;21.23;11.90;;;12.50;99.90;;;;;;5018854;28;20108;-75
2022/10/25 07:33:58;;;;;;;18.90;11.50;;;12.50;99.90;;;;;;5014936;28;20510;-74
2022/10/25 07:36:25;;;;;;;21.50;12.43;;;12.50;99.90;;;;;;5001930;28;20040;-76
2022/10/25 07:38:52;;;;;;;25.90;12.25;;;12.50;99.90;;;;;;5018031;28;20049;-74
2022/10/25 07:41:18;;;;;;;28.98;13.40;;;12.50;99.90;;;;;;5016984;28;20060;-75
2022/10/25 07:43:45;;;;;;;26.90;12.98;;;12.50;99.90;;;;;;5015747;28;20078;-75
2022/10/25 07:46:12;;;;;;;23.67;13.55;;;12.60;99.90;;;;;;5033769;28;20080;-75
2022/10/25 07:48:39;;;;;;;16.75;11.48;;;12.70;99.90;;;;;;5002784;28;20467;-76
2022/10/25 07:51:09;;;;;;;21.23;12.82;;;12.70;99.90;;;;;;5014406;28;20144;-75
2022/10/25 07:53:36;;;;;;;17.92;12.05;;;12.70;99.90;;;;;;5035775;28;20108;-75
2022/10/25 07:56:03;;;;;;;21.88;12.52;;;12.60;99.90;;;;;;5001889;28;20049;-74
2022/10/25 07:58:30;;;;;;;16.88;10.73;;;12.70;99.90;;;;;;5024483;28;20379;-75
2022/10/25 08:01:05;;;;;;;23.40;12.02;;;12.70;99.90;;;;;;5016018;28;20139;-75
2022/10/25 08:03:31;;;;;;;20.65;11.13;;;12.70;99.90;;;;;;5020991;28;20098;-76
2022/10/25 08:05:59;;;;;;;20.48;12.13;;;12.70;99.90;;;;;;5034529;28;20049;-73
2022/10/25 08:08:26;;;;;;;22.15;11.50;;;12.70;99.90;;;;;;5036731;28;20128;-73
2022/10/25 08:10:53;;;;;;;19.98;12.45;;;12.80;99.90;;;;;;5014145;28;20178;-73
2022/10/25 08:13:20;;;;;;;25.00;12.80;;;12.80;99.90;;;;;;5017959;28;20075;-72
2022/10/25 08:15:51;;;;;;;18.65;12.25;;;12.90;99.90;;;;;;5033277;28;20502;-72
2022/10/25 08:18:17;;;;;;;19.40;12.15;;;12.90;99.90;;;;;;5016218;28;20079;-73
2022/10/25 08:20:45;;;;;;;17.90;11.50;;;13.10;99.90;;;;;;5033244;28;20045;-73
2022/10/25 08:23:30;;;;;;;11.20;9.95;;;13.10;99.90;;;;;;5031102;28;20131;-72
2022/10/25 08:25:58;;;;;;;20.83;11.57;;;13.10;99.90;;;;;;5013762;28;20041;-72
2022/10/25 08:28:25;;;;;;;18.17;10.68;;;13.10;99.90;;;;;;5035609;28;20375;-72
2022/10/25 08:30:54;;;;;;;12.30;10.45;;;13.10;99.90;;;;;;5013133;28;20045;-72
2022/10/25 08:33:21;;;;;;;18.27;11.68;;;12.90;99.90;;;;;;5029848;28;20522;-72
2022/10/25 08:35:49;;;;;;;15.57;12.00;;;12.90;99.90;;;;;;5033861;28;20045;-72
2022/10/25 08:38:16;;;;;;;17.25;12.43;;;12.90;99.90;;;;;;5027681;22;20530;-73
2022/10/25 08:40:51;;;;;;;19.10;14.02;;;12.90;99.90;;;;;;5033407;28;20037;-72
2022/10/25 08:43:36;;;;;;;18.33;12.23;;;13.00;99.90;;;;;;5033539;28;20044;-72
2022/10/25 08:46:16;;;;;;;20.00;11.90;;;13.10;99.90;;;;;;5027461;28;20530;-74
2022/10/25 08:48:52;;;;;;;13.48;10.90;;;13.30;99.90;;;;;;5025820;28;20052;-72
2022/10/25 08:51:32;;;;;;;18.90;11.82;;;13.30;99.90;;;;;;5014467;28;20042;-71
2022/10/25 08:54:05;;;;;;;18.20;11.70;;;13.30;99.90;;;;;;5013756;28;20068;-72
2022/10/25 08:56:32;;;;;;;14.00;11.35;;;13.40;99.90;;;;;;5025617;28;20545;-72
2022/10/25 08:59:05;;;;;;;16.70;13.27;;;13.60;99.90;;;;;;5030171;28;20538;-72
2022/10/25 09:01:42;;;;;;;21.63;16.77;;;13.70;99.90;;;;;;5014507;28;20646;-72
2022/10/25 09:04:09;;;;;;;21.92;15.70;;;13.80;99.90;;;;;;5022234;28;20539;-71
2022/10/25 09:06:50;;;;;;;18.00;14.73;;;13.80;99.90;;;;;;5021490;28;20605;-71
2022/10/25 09:09:24;;;;;;;14.80;13.52;;;13.80;99.90;;;;;;5011137;28;20045;-74
2022/10/25 09:12:04;;;;;;;19.52;17.50;;;13.90;99.90;;;;;;5018480;28;20038;-72
2022/10/25 09:14:43;;;;;;;18.65;14.18;;;14.10;99.90;;;;;;5016547;28;20447;-72
2022/10/25 09:17:18;;;;;;;16.70;15.10;;;14.00;99.90;;;;;;4996827;28;20149;-72
2022/10/25 09:19:48;;;;;;;17.35;15.32;;;14.00;99.90;;;;;;5033799;28;20499;-71
2022/10/25 09:22:27;;;;;;;16.38;14.02;;;14.00;99.90;;;;;;5007286;28;20043;-71
2022/10/25 09:25:04;;;;;;;17.33;15.60;;;14.00;99.90;;;;;;5032045;28;20045;-71
2022/10/25 09:28:02;;;;;;;18.17;16.13;;;14.00;99.90;;;;;;5005421;28;20413;-72
2022/10/25 09:30:34;;;;;;;18.73;16.73;;;14.00;99.90;;;;;;5020263;28;20049;-73
2022/10/25 09:33:08;;;;;;;19.90;18.27;;;14.10;99.90;;;;;;5015642;28;20422;-72
2022/10/25 09:35:45;;;;;;;19.88;18.42;;;14.00;99.90;;;;;;5025629;28;20135;-71
2022/10/25 09:38:18;;;;;;;19.55;18.02;;;14.10;99.90;;;;;;5023075;28;20052;-72
2022/10/25 09:40:48;;;;;;;20.08;18.42;;;14.20;99.90;;;;;;5014510;28;20152;-71
2022/10/25 09:43:22;;;;;;;20.17;18.48;;;14.40;99.90;;;;;;5023610;28;20041;-71
2022/10/25 09:45:54;;;;;;;24.65;20.33;;;14.50;99.90;;;;;;5025025;28;20048;-72
2022/10/25 09:48:39;;;;;;;21.70;18.88;;;14.60;99.90;;;;;;5030378;28;20069;-71
2022/10/25 09:51:14;;;;;;;21.05;19.10;;;14.70;99.90;;;;;;5031891;28;20359;-73
2022/10/25 09:53:43;;;;;;;23.60;21.63;;;14.50;99.90;;;;;;5029366;28;20103;-72
2022/10/25 09:56:11;;;;;;;22.40;20.50;;;14.30;99.90;;;;;;5016057;28;20454;-71
2022/10/25 09:58:41;;;;;;;21.25;19.02;;;14.30;99.90;;;;;;5027205;28;20037;-72
2022/10/25 10:01:20;;;;;;;21.90;19.88;;;14.20;99.90;;;;;;5027091;28;20126;-72
2022/10/25 10:03:47;;;;;;;19.60;17.95;;;14.20;99.90;;;;;;5007452;28;20045;-71
2022/10/25 10:06:30;;;;;;;21.40;19.60;;;14.10;99.90;;;;;;5030122;28;20033;-71
2022/10/25 10:08:59;;;;;;;19.90;18.30;;;14.10;99.90;;;;;;5020698;28;20057;-71
2022/10/25 10:11:28;;;;;;;21.52;19.65;;;14.10;99.90;;;;;;5020506;28;20053;-71
2022/10/25 10:14:14;;;;;;;19.33;17.83;;;14.00;99.90;;;;;;5023791;28;20578;-72
2022/10/25 10:16:46;;;;;;;19.52;17.73;;;14.10;99.90;;;;;;5017029;28;20042;-71
2022/10/25 10:19:20;;;;;;;21.33;19.33;;;14.10;99.90;;;;;;5030580;28;20419;-71
2022/10/25 10:21:53;;;;;;;19.35;17.83;;;13.80;99.90;;;;;;5030826;28;20041;-72
2022/10/25 10:24:35;;;;;;;20.02;18.23;;;13.70;99.90;;;;;;5028550;28;20049;-72
2022/10/25 10:27:21;;;;;;;21.00;19.10;;;13.60;99.90;;;;;;5025502;28;20052;-72
2022/10/25 10:30:06;;;;;;;18.73;16.85;;;13.70;99.90;;;;;;5007096;28;20088;-72
2022/10/25 10:32:38;;;;;;;19.98;17.88;;;13.60;99.90;;;;;;5020148;28;20080;-72
2022/10/25 10:35:26;;;;;;;18.95;17.08;;;13.50;99.90;;;;;;5029708;28;20055;-71
2022/10/25 10:38:11;;;;;;;19.33;17.52;;;13.60;99.90;;;;;;5003392;28;20049;-72
2022/10/25 10:40:38;;;;;;;19.65;17.77;;;13.60;99.90;;;;;;5023101;28;20258;-72
2022/10/25 10:43:22;;;;;;;20.50;18.48;;;13.80;99.90;;;;;;5022973;28;20052;-71
2022/10/25 10:45:50;;;;;;;21.75;19.58;;;14.10;99.90;;;;;;5023034;28;20057;-71
2022/10/25 10:48:21;;;;;;;21.08;19.15;;;14.20;99.90;;;;;;5027985;28;20049;-71
2022/10/25 10:50:49;;;;;;;22.83;20.77;;;14.30;99.90;;;;;;5023924;28;20158;-71
2022/10/25 10:53:21;;;;;;;23.48;21.50;;;14.30;99.90;;;;;;5032835;28;20045;-71
2022/10/25 10:55:52;;;;;;;25.20;22.42;;;14.20;99.90;;;;;;5025750;28;20047;-71
2022/10/25 10:58:25;;;;;;;26.35;23.48;;;14.20;99.90;;;;;;5030295;28;20052;-71
2022/10/25 11:01:04;;;;;;;24.73;22.33;;;14.30;99.90;;;;;;5020457;28;20059;-70
2022/10/25 11:03:40;;;;;;;25.95;22.52;;;14.40;99.90;;;;;;5026930;28;20418;-71
2022/10/25 11:06:29;;;;;;;23.58;21.25;;;14.50;99.90;;;;;;5026112;28;20045;-71
2022/10/25 11:09:11;;;;;;;23.38;20.92;;;14.60;99.90;;;;;;5025840;28;20052;-71
2022/10/25 11:11:39;;;;;;;22.90;20.50;;;14.70;99.90;;;;;;5008036;28;20455;-71
2022/10/25 11:14:14;;;;;;;23.92;21.77;;;14.70;99.90;;;;;;5028229;28;20135;-72
2022/10/25 11:16:46;;;;;;;;;;;14.90;99.90;;;;;;5014384;28;20034;-70
2022/10/25 11:19:39;;;;;;;23.20;21.40;;;15.00;99.90;;;;;;5024576;28;20005;-72
2022/10/25 11:22:26;;;;;;;24.58;22.08;;;15.00;99.90;;;;;;5022010;28;20127;-72
2022/10/25 11:25:07;;;;;;;24.42;22.38;;;15.00;99.90;;;;;;5023493;28;20049;-71
2022/10/25 11:28:01;;;;;;;23.50;21.67;;;15.20;99.90;;;;;;5012929;28;20045;-72
2022/10/25 11:30:56;;;;;;;25.58;23.55;;;15.50;99.90;;;;;;5020057;28;20085;-72
2022/10/25 11:33:41;;;;;;;25.05;23.17;;;15.60;99.90;;;;;;5029782;28;20048;-72
2022/10/25 11:36:31;;;;;;;25.80;23.77;;;15.50;99.90;;;;;;5030859;28;20029;-72
2022/10/25 11:39:17;;;;;;;23.73;21.95;;;15.30;99.90;;;;;;4990316;28;20650;-72
2022/10/25 11:41:47;;;;;;;24.75;22.58;;;15.10;99.90;;;;;;5027485;28;20048;-71
2022/10/25 11:44:37;;;;;;;24.60;22.55;;;15.00;99.90;;;;;;5032646;28;20045;-71
2022/10/25 11:47:23;;;;;;;26.52;24.38;;;15.00;99.90;;;;;;4994647;28;21184;-72
2022/10/25 11:50:23;;;;;;;24.73;22.65;;;15.00;99.90;;;;;;5028733;28;20044;-72
2022/10/25 11:53:05;;;;;;;24.45;22.60;;;15.10;99.90;;;;;;5022446;28;20033;-72
2022/10/25 11:55:44;;;;;;;26.23;23.55;;;15.00;99.90;;;;;;5016148;28;20163;-71
2022/10/25 11:58:37;;;;;;;25.60;23.17;;;15.00;99.90;;;;;;5025519;28;20384;-72
2022/10/25 12:01:28;;;;;;;24.65;22.83;;;15.10;99.90;;;;;;5022088;28;20131;-71
2022/10/25 12:04:17;;;;;;;25.27;23.23;;;15.00;99.90;;;;;;5028585;28;20052;-72
2022/10/25 12:07:19;;;;;;;27.15;24.80;;;14.80;99.90;;;;;;5019966;28;20033;-71
2022/10/25 12:10:01;;;;;;;25.17;23.48;;;14.80;99.90;;;;;;5029515;28;20426;-72
2022/10/25 12:12:50;;;;;;;25.27;23.02;;;14.80;99.90;;;;;;5028892;28;20044;-71
2022/10/25 12:15:25;;;;;;;25.58;23.65;;;14.70;99.90;;;;;;5025262;28;20045;-71
2022/10/25 12:17:52;;;;;;;24.58;22.33;;;14.60;99.90;;;;;;5029623;28;20045;-72
2022/10/25 12:20:24;;;;;;;23.52;21.73;;;14.60;99.90;;;;;;5004566;28;20053;-72
2022/10/25 12:22:55;;;;;;;23.23;21.25;;;14.40;99.90;;;;;;5009998;28;20049;-72
2022/10/25 12:25:32;;;;;;;22.77;20.77;;;14.20;99.90;;;;;;5031907;28;20101;-72
2022/10/25 12:28:08;;;;;;;22.17;20.67;;;14.10;99.90;;;;;;5030146;28;20044;-72
2022/10/25 12:30:36;;;;;;;22.38;20.25;;;14.10;99.90;;;;;;5001956;28;20047;-72
2022/10/25 12:33:24;;;;;;;21.73;20.20;;;14.20;99.90;;;;;;5033000;28;20065;-72
2022/10/25 12:35:57;;;;;;;22.77;20.92;;;14.30;99.90;;;;;;5014490;28;20068;-72
2022/10/25 12:38:36;;;;;;;22.25;20.65;;;14.40;99.90;;;;;;5029556;28;20063;-72
2022/10/25 12:41:07;;;;;;;23.73;21.92;;;14.60;99.90;;;;;;5014118;28;20048;-72
2022/10/25 12:43:43;;;;;;;25.35;23.13;;;14.70;99.90;;;;;;5028818;28;20450;-72
2022/10/25 12:46:12;;;;;;;;;;;14.80;99.90;;;;;;5026016;28;20792;-72
2022/10/25 12:48:51;;;;;;;25.67;23.65;;;14.80;99.90;;;;;;5027022;28;20294;-72
2022/10/25 12:51:39;;;;;;;24.23;22.25;;;14.90;99.90;;;;;;5015819;28;20040;-72
2022/10/25 12:54:14;;;;;;;22.67;20.98;;;14.90;99.90;;;;;;5036844;28;20046;-72
2022/10/25 12:57:09;;;;;;;24.10;22.05;;;14.90;99.90;;;;;;4997905;28;20498;-72
2022/10/25 13:00:03;;;;;;;25.05;23.13;;;15.10;99.90;;;;;;5028722;28;20312;-72
2022/10/25 13:03:01;;;;;;;25.67;23.63;;;15.20;99.90;;;;;;5025655;28;20445;-72